Time;durP1;ratioP1;P1;durP2;ratioP2;P2;SDS_P1;SDS_P2;PMS_P1;PMS_P2;Temp;Humidity;BMP_temperature;BMP_pressure;BME280_temperature;BME280_humidity;BME280_pressure;Samples;Min_cycle;Max_cycle;Signal;HPM_P1;HPM_P2
2023/01/22 00:01:46;;;;;;;;;;;-1.00;99.90;;;;;;5016189;28;19916;-77
2023/01/22 00:04:12;;;;;;;;;;;-1.10;99.90;;;;;;5017123;28;20390;-78
2023/01/22 00:06:37;;;;;;;;;;;-1.10;99.90;;;;;;5014792;28;19914;-77
2023/01/22 00:09:03;;;;;;;;;;;-1.10;99.90;;;;;;5016269;28;19913;-78
2023/01/22 00:11:28;;;;;;;;;;;-1.10;99.90;;;;;;5016248;28;20428;-78
2023/01/22 00:13:54;;;;;;;;;;;-1.10;99.90;;;;;;5016319;28;19910;-78
2023/01/22 00:16:19;;;;;;;;;;;-1.10;99.90;;;;;;4998921;28;19917;-78
2023/01/22 00:18:45;;;;;;;;;;;-1.10;99.90;;;;;;5015741;28;20290;-77
2023/01/22 00:21:11;;;;;;;;;;;-1.00;99.90;;;;;;5015328;28;20043;-80
2023/01/22 00:23:37;;;;;;;;;;;-1.00;99.90;;;;;;5016353;28;20394;-79
2023/01/22 00:26:05;;;;;;;;;;;-1.00;99.90;;;;;;5018013;28;20004;-78
2023/01/22 00:28:31;;;;;;;;;;;-1.00;99.90;;;;;;5019588;28;19913;-78
2023/01/22 00:30:57;;;;;;;;;;;-1.00;99.90;;;;;;5019976;28;20112;-78
2023/01/22 00:33:23;;;;;;;;;;;-1.00;99.90;;;;;;5018562;28;19936;-79
2023/01/22 00:35:48;;;;;;;;;;;-1.00;99.90;;;;;;5004396;28;19918;-78
2023/01/22 00:38:14;;;;;;;;;;;-1.00;99.90;;;;;;5017073;28;19975;-77
2023/01/22 00:40:39;;;;;;;;;;;-1.00;99.90;;;;;;5015860;28;20362;-76
2023/01/22 00:43:05;;;;;;;;;;;-1.00;99.90;;;;;;5015514;28;19917;-78
2023/01/22 00:45:30;;;;;;;;;;;-1.00;99.90;;;;;;4997508;28;19925;-77
2023/01/22 00:47:56;;;;;;;;;;;-1.00;99.90;;;;;;5013410;28;20381;-78
2023/01/22 00:50:21;;;;;;;;;;;-1.10;99.90;;;;;;5017544;28;19910;-78
2023/01/22 00:52:47;;;;;;;;;;;-1.10;99.90;;;;;;5015312;28;20489;-78
2023/01/22 00:55:13;;;;;;;;;;;-1.00;99.90;;;;;;4997609;28;19914;-77
2023/01/22 00:57:38;;;;;;;;;;;-1.10;99.90;;;;;;5014431;28;20396;-78
2023/01/22 01:00:04;;;;;;;;;;;-1.00;99.90;;;;;;5016193;28;19909;-78
2023/01/22 01:02:29;;;;;;;;;;;-1.00;99.90;;;;;;5018897;28;20334;-77
2023/01/22 01:04:55;;;;;;;;;;;-1.00;99.90;;;;;;5004503;28;19910;-78
2023/01/22 01:07:21;;;;;;;;;;;-1.00;99.90;;;;;;5003163;28;19917;-78
2023/01/22 01:09:46;;;;;;;;;;;-1.00;99.90;;;;;;5019913;28;19916;-77
2023/01/22 01:12:12;;;;;;;;;;;-1.10;99.90;;;;;;5017236;28;19914;-78
2023/01/22 01:14:37;;;;;;;;;;;-1.00;99.90;;;;;;5019520;28;19916;-78
2023/01/22 01:17:03;;;;;;;;;;;-1.00;99.90;;;;;;5021566;28;19909;-78
2023/01/22 01:19:29;;;;;;;;;;;-1.00;99.90;;;;;;5023897;28;19918;-78
2023/01/22 01:21:54;;;;;;;;;;;-0.90;99.90;;;;;;5014974;28;19908;-78
2023/01/22 01:24:20;;;;;;;;;;;-0.90;99.90;;;;;;5014098;28;19949;-78
2023/01/22 01:26:45;;;;;;;;;;;-0.90;99.90;;;;;;5013319;28;19913;-78
2023/01/22 01:29:11;;;;;;;;;;;-0.90;99.90;;;;;;4997966;28;19916;-78
2023/01/22 01:31:36;;;;;;;;;;;-0.90;99.90;;;;;;5014999;28;19921;-79
2023/01/22 01:34:02;;;;;;;;;;;-0.90;99.90;;;;;;5014586;28;20353;-79
2023/01/22 01:36:28;;;;;;;;;;;-0.90;99.90;;;;;;5010495;28;19902;-78
2023/01/22 01:38:53;;;;;;;;;;;-0.90;99.90;;;;;;5011031;28;19929;-79
2023/01/22 01:41:21;;;;;;;;;;;-0.90;99.90;;;;;;5034754;28;19918;-79
2023/01/22 01:44:04;;;;;;;;;;;-0.90;99.90;;;;;;5036615;28;19908;-79
2023/01/22 01:46:30;;;;;;;;;;;-0.90;99.90;;;;;;5022291;28;19918;-77
2023/01/22 01:48:55;;;;;;;;;;;-1.00;99.90;;;;;;5014208;28;19959;-78
2023/01/22 01:51:27;;;;;;;;;;;-1.00;99.90;;;;;;4999257;28;19977;-78
2023/01/22 01:53:52;;;;;;;;;;;-0.90;99.90;;;;;;5014904;28;19996;-78
2023/01/22 01:56:24;;;;;;;;;;;-1.00;99.90;;;;;;5014304;28;19909;-78
2023/01/22 01:58:52;;;;;;;;;;;-1.00;99.90;;;;;;5014040;28;19917;-77
2023/01/22 02:01:18;;;;;;;;;;;-1.00;99.90;;;;;;5013825;28;19922;-78
2023/01/22 02:03:44;;;;;;;;;;;-1.00;99.90;;;;;;5012867;28;19915;-78
2023/01/22 02:06:11;;;;;;;;;;;-1.00;99.90;;;;;;4994169;28;19969;-78
2023/01/22 02:08:37;;;;;;;;;;;-0.90;99.90;;;;;;4997206;28;20375;-78
2023/01/22 02:11:03;;;;;;;;;;;-1.00;99.90;;;;;;5014869;28;20367;-77
2023/01/22 02:13:31;;;;;;;;;;;-1.00;99.90;;;;;;5013440;28;19952;-76
2023/01/22 02:15:56;;;;;;;;;;;-1.00;99.90;;;;;;5014099;28;19952;-77
2023/01/22 02:18:22;;;;;;;;;;;-1.00;99.90;;;;;;5013652;28;19914;-78
2023/01/22 02:20:58;;;;;;;;;;;-1.10;99.90;;;;;;5014593;28;20282;-77
2023/01/22 02:23:24;;;;;;;;;;;-1.10;99.90;;;;;;5012979;28;19916;-78
2023/01/22 02:25:50;;;;;;;;;;;-1.10;99.90;;;;;;5013631;28;19914;-77
2023/01/22 02:28:15;;;;;;;;;;;-1.00;99.90;;;;;;5013509;28;19909;-78
2023/01/22 02:30:41;;;;;;;;;;;-1.10;99.90;;;;;;5016766;28;20390;-77
2023/01/22 02:33:07;;;;;;;;;;;-1.10;99.90;;;;;;5014339;28;20027;-78
2023/01/22 02:35:33;;;;;;;;;;;-1.00;99.90;;;;;;4999921;28;19964;-79
2023/01/22 02:37:58;;;;;;;;;;;-1.10;99.90;;;;;;5003543;28;19922;-79
2023/01/22 02:40:24;;;;;;;;;;;-1.10;99.90;;;;;;5020571;28;20378;-78
2023/01/22 02:42:50;;;;;;;;;;;-1.00;99.90;;;;;;5020578;28;19914;-78
2023/01/22 02:45:15;;;;;;;;;;;-1.10;99.90;;;;;;5019936;28;19917;-79
2023/01/22 02:47:41;;;;;;;;;;;-1.10;99.90;;;;;;5022559;28;19971;-78
2023/01/22 02:50:06;;;;;;;;;;;-1.10;99.90;;;;;;5020495;28;19921;-78
2023/01/22 02:52:32;;;;;;;;;;;-1.10;99.90;;;;;;5019745;28;19929;-79
2023/01/22 02:54:57;;;;;;;;;;;-1.10;99.90;;;;;;5019557;28;19941;-78
2023/01/22 02:57:23;;;;;;;;;;;-1.20;99.90;;;;;;5019863;28;19925;-79
2023/01/22 02:59:48;;;;;;;;;;;-1.20;99.90;;;;;;5001230;28;19921;-76
2023/01/22 03:02:14;;;;;;;;;;;-1.10;99.90;;;;;;4995538;28;20260;-77
2023/01/22 03:04:40;;;;;;;;;;;-1.10;99.90;;;;;;5000727;28;19965;-78
2023/01/22 03:07:05;;;;;;;;;;;-1.20;99.90;;;;;;5016665;28;19913;-78
2023/01/22 03:09:31;;;;;;;;;;;-1.20;99.90;;;;;;5017137;28;20024;-77
2023/01/22 03:11:57;;;;;;;;;;;-1.20;99.90;;;;;;5020502;28;19917;-79
2023/01/22 03:22:35;;;;;;;;;;;-1.10;99.90;;;;;;5019737;28;19921;-78
2023/01/22 03:25:01;;;;;;;;;;;-1.10;99.90;;;;;;5018777;28;19909;-76
2023/01/22 03:27:27;;;;;;;;;;;-1.10;99.90;;;;;;5019870;28;19941;-77
2023/01/22 03:29:53;;;;;;;;;;;-1.10;99.90;;;;;;5016556;28;19964;-77
2023/01/22 03:32:19;;;;;;;;;;;-1.10;99.90;;;;;;5015756;28;20295;-77
2023/01/22 03:34:44;;;;;;;;;;;-1.10;99.90;;;;;;5006710;28;19910;-78
2023/01/22 03:37:13;;;;;;;;;;;-1.10;99.90;;;;;;4997192;28;20005;-78
2023/01/22 03:39:39;;;;;;;;;;;-1.10;99.90;;;;;;4999853;28;19929;-77
2023/01/22 03:42:04;;;;;;;;;;;-1.10;99.90;;;;;;5003223;28;19910;-79
2023/01/22 03:44:30;;;;;;;;;;;-1.10;99.90;;;;;;5001380;28;19917;-78
2023/01/22 03:46:55;;;;;;;;;;;-1.10;99.90;;;;;;5001522;28;19910;-78
2023/01/22 03:49:21;;;;;;;;;;;-1.10;99.90;;;;;;5003661;28;19925;-78
2023/01/22 03:51:46;;;;;;;;;;;-1.10;99.90;;;;;;5019264;28;20569;-78
2023/01/22 03:54:13;;;;;;;;;;;-1.00;99.90;;;;;;5018544;28;19918;-78
2023/01/22 03:56:39;;;;;;;;;;;-1.00;99.90;;;;;;5019782;28;19915;-77
2023/01/22 03:59:04;;;;;;;;;;;-1.00;99.90;;;;;;5021267;28;20012;-78
2023/01/22 04:01:30;;;;;;;;;;;-1.00;99.90;;;;;;5017970;28;19948;-78
2023/01/22 04:03:55;;;;;;;;;;;-1.10;99.90;;;;;;5017252;28;19960;-79
2023/01/22 04:06:22;;;;;;;;;;;-1.10;99.90;;;;;;5019845;28;20346;-78
2023/01/22 04:08:48;;;;;;;;;;;-1.10;99.90;;;;;;5017372;28;20485;-78
2023/01/22 04:11:14;;;;;;;;;;;-1.20;99.90;;;;;;5033476;28;20004;-78
2023/01/22 04:13:41;;;;;;;;;;;-1.20;99.90;;;;;;5018792;28;19952;-78
2023/01/22 04:16:07;;;;;;;;;;;-1.20;99.90;;;;;;5019232;28;19910;-79
2023/01/22 04:18:33;;;;;;;;;;;-1.20;99.90;;;;;;5019998;28;19964;-78
2023/01/22 04:20:58;;;;;;;;;;;-1.20;99.90;;;;;;5015301;28;19979;-77
2023/01/22 04:23:24;;;;;;;;;;;-1.20;99.90;;;;;;5015349;28;19924;-77
2023/01/22 04:25:49;;;;;;;;;;;-1.30;99.90;;;;;;5020131;28;19902;-78
2023/01/22 04:28:15;;;;;;;;;;;-1.30;99.90;;;;;;5018437;28;19909;-78
2023/01/22 04:30:41;;;;;;;;;;;-1.30;99.90;;;;;;5016230;28;19917;-77
2023/01/22 04:33:07;;;;;;;;;;;-1.30;99.90;;;;;;5014844;28;19972;-78
2023/01/22 04:35:34;;;;;;;;;;;-1.30;99.90;;;;;;5015002;28;19940;-77
2023/01/22 04:37:59;;;;;;;;;;;-1.30;99.90;;;;;;5015182;28;19925;-77
2023/01/22 04:40:25;;;;;;;;;;;-1.30;99.90;;;;;;5015100;28;19914;-77
2023/01/22 04:42:51;;;;;;;;;;;-1.30;99.90;;;;;;5013835;28;19910;-78
2023/01/22 04:45:16;;;;;;;;;;;-1.30;99.90;;;;;;5014526;28;19921;-76
2023/01/22 04:47:43;;;;;;;;;;;-1.30;99.90;;;;;;5016989;28;20024;-78
2023/01/22 04:50:14;;;;;;;;;;;-1.30;99.90;;;;;;4987678;28;19918;-77
2023/01/22 04:52:39;;;;;;;;;;;-1.30;99.90;;;;;;5011602;28;19913;-78
2023/01/22 04:55:05;;;;;;;;;;;-1.30;99.90;;;;;;5021943;28;19982;-78
2023/01/22 04:57:30;;;;;;;;;;;-1.30;99.90;;;;;;5019451;28;19933;-77
2023/01/22 04:59:56;;;;;;;;;;;-1.30;99.90;;;;;;5015680;28;19909;-77
2023/01/22 05:02:22;;;;;;;;;;;-1.30;99.90;;;;;;5014456;28;19963;-78
2023/01/22 05:04:47;;;;;;;;;;;-1.30;99.90;;;;;;5015194;28;20016;-78
2023/01/22 05:07:13;;;;;;;;;;;-1.30;99.90;;;;;;5016067;28;19914;-77
2023/01/22 05:09:38;;;;;;;;;;;-1.30;99.90;;;;;;5014684;28;19960;-78
2023/01/22 05:12:04;;;;;;;;;;;-1.30;99.90;;;;;;5014980;28;20291;-77
2023/01/22 05:14:29;;;;;;;;;;;-1.30;99.90;;;;;;5014482;28;19973;-77
2023/01/22 05:16:55;;;;;;;;;;;-1.20;99.90;;;;;;5014849;28;19909;-78
2023/01/22 05:19:20;;;;;;;;;;;-1.20;99.90;;;;;;5029842;28;19909;-77
2023/01/22 05:21:46;;;;;;;;;;;-1.30;99.90;;;;;;5014778;28;19910;-77
2023/01/22 05:24:13;;;;;;;;;;;-1.30;99.90;;;;;;5016783;28;20306;-78
2023/01/22 05:26:39;;;;;;;;;;;-1.30;99.90;;;;;;5013127;28;19910;-77
2023/01/22 05:29:04;;;;;;;;;;;-1.30;99.90;;;;;;5013993;28;19960;-77
2023/01/22 05:31:30;;;;;;;;;;;-1.40;99.90;;;;;;5016817;28;20286;-78
2023/01/22 05:33:56;;;;;;;;;;;-1.40;99.90;;;;;;5011556;28;20001;-77
2023/01/22 05:36:21;;;;;;;;;;;-1.40;99.90;;;;;;4995069;28;19910;-77
2023/01/22 05:38:47;;;;;;;;;;;-1.40;99.90;;;;;;4994761;28;20008;-77
2023/01/22 05:41:12;;;;;;;;;;;-1.50;99.90;;;;;;4994945;28;19937;-77
2023/01/22 05:43:38;;;;;;;;;;;-1.50;99.90;;;;;;5004025;28;20055;-78
2023/01/22 05:46:04;;;;;;;;;;;-1.50;99.90;;;;;;5018650;28;20424;-78
2023/01/22 05:48:32;;;;;;;;;;;-1.50;99.90;;;;;;5016787;28;19932;-78
2023/01/22 05:51:02;;;;;;;;;;;-1.60;99.90;;;;;;5016386;28;19917;-78
2023/01/22 05:53:27;;;;;;;;;;;-1.60;99.90;;;;;;5016535;28;19924;-77
2023/01/22 05:55:53;;;;;;;;;;;-1.70;99.90;;;;;;5000968;28;19933;-78
2023/01/22 05:58:18;;;;;;;;;;;-1.70;99.90;;;;;;5016728;28;20344;-78
2023/01/22 06:00:44;;;;;;;;;;;-1.70;99.90;;;;;;5016552;28;19910;-78
2023/01/22 06:03:09;;;;;;;;;;;-1.80;99.90;;;;;;5016405;28;19924;-78
2023/01/22 06:05:35;;;;;;;;;;;-1.80;99.90;;;;;;5014397;28;20322;-77
2023/01/22 06:08:00;;;;;;;;;;;-1.80;99.90;;;;;;5013086;28;20294;-77
2023/01/22 06:10:26;;;;;;;;;;;-1.90;99.90;;;;;;4999319;28;19988;-76
2023/01/22 06:12:51;;;;;;;;;;;-1.90;99.90;;;;;;5013834;28;19954;-76
2023/01/22 06:15:17;;;;;;;;;;;-1.90;99.90;;;;;;5013193;28;19917;-78
2023/01/22 06:17:42;;;;;;;;;;;-1.90;99.90;;;;;;5013196;28;19917;-77
2023/01/22 06:20:08;;;;;;;;;;;-1.90;99.90;;;;;;5013993;28;20603;-77
2023/01/22 06:22:34;;;;;;;;;;;-1.90;99.90;;;;;;5016493;28;20008;-77
2023/01/22 06:24:59;;;;;;;;;;;-1.80;99.90;;;;;;5016481;28;20362;-77
2023/01/22 06:27:25;;;;;;;;;;;-1.80;99.90;;;;;;5016205;28;19914;-78
2023/01/22 06:29:50;;;;;;;;;;;-1.70;99.90;;;;;;5014717;28;19935;-78
2023/01/22 06:32:16;;;;;;;;;;;-1.70;99.90;;;;;;5016335;28;19917;-77
2023/01/22 06:34:41;;;;;;;;;;;-1.70;99.90;;;;;;5016584;28;19910;-77
2023/01/22 06:37:07;;;;;;;;;;;-1.70;99.90;;;;;;5014185;28;19913;-77
2023/01/22 06:39:32;;;;;;;;;;;-1.60;99.90;;;;;;5013749;28;19917;-78
2023/01/22 06:41:58;;;;;;;;;;;-1.60;99.90;;;;;;5013799;28;19898;-77
2023/01/22 06:44:23;;;;;;;;;;;-1.50;99.90;;;;;;5015980;28;19922;-78
2023/01/22 06:46:49;;;;;;;;;;;-1.50;99.90;;;;;;5002802;28;19909;-78
2023/01/22 06:49:14;;;;;;;;;;;-1.50;99.90;;;;;;5015811;28;19910;-78
2023/01/22 06:51:40;;;;;;;;;;;-1.50;99.90;;;;;;5014726;28;19909;-77
2023/01/22 06:54:05;;;;;;;;;;;-1.40;99.90;;;;;;5013263;28;19944;-78
2023/01/22 06:56:31;;;;;;;;;;;-1.50;99.90;;;;;;5014017;28;19910;-77
2023/01/22 06:58:57;;;;;;;;;;;-1.50;99.90;;;;;;5010976;28;19925;-76
2023/01/22 07:01:24;;;;;;;;;;;-1.50;99.90;;;;;;5003162;28;19913;-76
2023/01/22 07:03:50;;;;;;;;;;;-1.50;99.90;;;;;;5014233;28;19921;-77
2023/01/22 07:06:17;;;;;;;;;;;-1.40;99.90;;;;;;5017422;28;19960;-77
2023/01/22 07:08:44;;;;;;;;;;;-1.40;99.90;;;;;;5017440;28;20327;-77
2023/01/22 07:11:09;;;;;;;;;;;-1.40;99.90;;;;;;5000241;28;19917;-77
2023/01/22 07:13:35;;;;;;;;;;;-1.40;99.90;;;;;;5024236;28;19916;-77
2023/01/22 07:16:11;;;;;;;;;;;-1.40;99.90;;;;;;5030276;28;19948;-78
2023/01/22 07:18:37;;;;;;;;;;;-1.40;99.90;;;;;;5032627;28;19913;-77
2023/01/22 07:21:04;;;;;;;;;;;-1.40;99.90;;;;;;5019251;28;19920;-78
2023/01/22 07:23:30;;;;;;;;;;;-1.40;99.90;;;;;;5028167;28;19910;-77
2023/01/22 07:25:55;;;;;;;;;;;-1.40;99.90;;;;;;5005279;28;20012;-78
2023/01/22 07:28:21;;;;;;;;;;;-1.40;99.90;;;;;;5021705;28;19955;-78
2023/01/22 07:30:47;;;;;;;;;;;-1.40;99.90;;;;;;5020940;28;19924;-78
2023/01/22 07:33:13;;;;;;;;;;;-1.40;99.90;;;;;;5019989;28;19956;-77
2023/01/22 07:35:39;;;;;;;;;;;-1.40;99.90;;;;;;5019785;28;19913;-78
2023/01/22 07:38:05;;;;;;;;;;;-1.40;99.90;;;;;;5003564;28;19923;-78
2023/01/22 07:40:31;;;;;;;;;;;-1.40;99.90;;;;;;5021600;28;19913;-79
2023/01/22 07:42:56;;;;;;;;;;;-1.40;99.90;;;;;;5003591;28;20190;-78
2023/01/22 07:45:23;;;;;;;;;;;-1.30;99.90;;;;;;5003075;28;19917;-78
2023/01/22 07:47:56;;;;;;;;;;;-1.20;99.90;;;;;;5003061;28;19914;-78
2023/01/22 07:50:25;;;;;;;;;;;-1.20;99.90;;;;;;5019911;28;19917;-78
2023/01/22 07:52:51;;;;;;;;;;;-1.20;99.90;;;;;;5020777;28;19924;-78
2023/01/22 07:55:17;;;;;;;;;;;-1.20;99.90;;;;;;5018679;28;19921;-79
2023/01/22 07:57:43;;;;;;;;;;;-1.10;99.90;;;;;;5019915;28;19936;-78
2023/01/22 08:00:09;;;;;;;;;;;-1.10;99.90;;;;;;5019962;28;20358;-78
2023/01/22 08:02:36;;;;;;;;;;;-1.20;99.90;;;;;;5035650;28;19909;-78
2023/01/22 08:05:02;;;;;;;;;;;-1.20;99.90;;;;;;5012184;28;19918;-78
2023/01/22 08:07:29;;;;;;;;;;;-1.10;99.90;;;;;;5002701;28;19917;-78
2023/01/22 08:09:55;;;;;;;;;;;-1.10;99.90;;;;;;5005227;28;19913;-78
2023/01/22 08:12:21;;;;;;;;;;;-1.10;99.90;;;;;;5021379;28;20005;-77
2023/01/22 08:14:46;;;;;;;;;;;-1.00;99.90;;;;;;5001826;28;19962;-78
2023/01/22 08:17:12;;;;;;;;;;;-0.90;99.90;;;;;;5001673;28;19914;-77
2023/01/22 08:19:40;;;;;;;;;;;-0.80;99.90;;;;;;5017795;28;19922;-78
2023/01/22 08:22:06;;;;;;;;;;;-0.80;99.90;;;;;;5021272;28;19913;-78
2023/01/22 08:24:33;;;;;;;;;;;-0.80;99.90;;;;;;5013815;28;19913;-78
2023/01/22 08:26:59;;;;;;;;;;;-0.80;99.90;;;;;;4983678;28;20001;-78
2023/01/22 08:29:24;;;;;;;;;;;-0.80;99.90;;;;;;4999383;28;20284;-80
2023/01/22 08:31:51;;;;;;;;;;;-0.70;99.90;;;;;;5002957;28;19910;-79
2023/01/22 08:34:18;;;;;;;;;;;-0.60;99.90;;;;;;5011415;28;19918;-78
2023/01/22 08:36:44;;;;;;;;;;;-0.60;99.90;;;;;;5002198;28;20003;-78
2023/01/22 08:39:09;;;;;;;;;;;-0.50;99.90;;;;;;5006374;28;19926;-78
2023/01/22 08:41:39;;;;;;;;;;;-0.30;99.90;;;;;;5022592;28;20207;-79
2023/01/22 08:44:05;;;;;;;;;;;-0.20;99.90;;;;;;5023495;28;19948;-79
2023/01/22 08:46:31;;;;;;;;;;;-0.20;99.90;;;;;;5024228;28;19909;-79
2023/01/22 08:48:56;;;;;;;;;;;-0.10;99.90;;;;;;5020432;28;20062;-80
2023/01/22 08:51:23;;;;;;;;;;;-0.10;99.90;;;;;;5017347;28;19916;-78
2023/01/22 08:53:49;;;;;;;;;;;-0.10;99.90;;;;;;5019931;28;19910;-80
2023/01/22 08:56:15;;;;;;;;;;;-0.10;99.90;;;;;;5016425;28;19965;-80
2023/01/22 08:58:40;;;;;;;;;;;0.00;99.90;;;;;;5016305;28;20071;-78
2023/01/22 09:01:06;;;;;;;;;;;0.00;99.90;;;;;;5017733;28;20438;-78
2023/01/22 09:03:31;;;;;;;;;;;0.10;99.90;;;;;;5016075;28;19981;-77
2023/01/22 09:05:57;;;;;;;;;;;0.10;99.90;;;;;;4997751;28;19921;-80
2023/01/22 09:08:23;;;;;;;;;;;0.10;99.90;;;;;;5002500;28;19922;-79
2023/01/22 09:10:48;;;;;;;;;;;0.20;99.90;;;;;;5016990;28;19952;-77
2023/01/22 09:13:14;;;;;;;;;;;0.20;99.90;;;;;;5017518;28;20379;-80
2023/01/22 09:15:40;;;;;;;;;;;0.30;99.90;;;;;;5001328;28;19924;-79
2023/01/22 09:18:05;;;;;;;;;;;0.40;99.90;;;;;;5016565;28;19913;-78
2023/01/22 09:20:31;;;;;;;;;;;0.40;99.90;;;;;;5017599;28;20026;-79
2023/01/22 09:22:56;;;;;;;;;;;0.40;99.90;;;;;;5017686;28;19992;-78
2023/01/22 09:25:22;;;;;;;;;;;0.50;99.90;;;;;;5017357;28;20336;-79
2023/01/22 09:27:47;;;;;;;;;;;0.60;99.90;;;;;;5018052;28;20318;-78
2023/01/22 09:30:13;;;;;;;;;;;0.60;99.90;;;;;;5017983;28;19917;-79
2023/01/22 09:32:39;;;;;;;;;;;0.80;99.90;;;;;;5017466;28;20367;-79
2023/01/22 09:35:05;;;;;;;;;;;0.90;99.90;;;;;;5016380;28;19924;-79
2023/01/22 09:37:30;;;;;;;;;;;0.80;99.90;;;;;;5018750;28;19913;-80
2023/01/22 09:39:56;;;;;;;;;;;0.80;99.90;;;;;;5019677;28;19928;-79
2023/01/22 09:42:23;;;;;;;;;;;0.80;99.90;;;;;;5020076;28;19917;-80
2023/01/22 09:44:52;;;;;;;;;;;0.90;99.90;;;;;;5016463;28;19918;-79
2023/01/22 09:47:29;;;;;;;;;;;1.00;99.90;;;;;;5016184;28;19917;-78
2023/01/22 09:50:00;;;;;;;;;;;1.10;99.90;;;;;;5017152;28;19918;-79
2023/01/22 09:52:30;;;;;;;;;;;1.30;99.90;;;;;;5019080;28;20326;-79
2023/01/22 09:54:55;;;;;;;;;;;1.40;99.80;;;;;;5000642;28;19913;-77
2023/01/22 09:57:21;;;;;;;;;;;1.20;99.90;;;;;;5016695;28;19913;-79
2023/01/22 09:59:51;;;;;;;;;;;1.00;99.80;;;;;;5031348;28;19948;-78
2023/01/22 10:02:42;;;;;;;;;;;0.70;99.90;;;;;;5037351;28;19922;-79
2023/01/22 10:05:27;;;;;;;;;;;0.70;99.90;;;;;;5031324;28;19909;-79
2023/01/22 10:08:04;;;;;;;;;;;0.60;99.90;;;;;;5029928;28;19914;-78
2023/01/22 10:10:31;;;;;;;;;;;0.50;99.90;;;;;;5019763;28;20292;-79
2023/01/22 10:12:56;;;;;;;;;;;0.50;99.90;;;;;;5018929;28;19971;-79
2023/01/22 10:15:23;;;;;;;;;;;0.60;99.90;;;;;;5018701;28;19926;-78
2023/01/22 10:17:48;;;;;;;;;;;0.70;99.90;;;;;;5003713;28;19937;-78
2023/01/22 10:20:17;;;;;;;;;;;0.60;99.90;;;;;;5019356;28;19933;-80
2023/01/22 10:22:43;;;;;;;;;;;0.60;99.90;;;;;;5000564;28;19917;-80
2023/01/22 10:25:12;;;;;;;;;;;0.60;99.90;;;;;;5024445;28;19936;-79
2023/01/22 10:27:38;;;;;;;;;;;0.70;99.90;;;;;;5016759;28;19924;-78
2023/01/22 10:30:13;;;;;;;;;;;0.90;99.90;;;;;;5015882;28;19920;-79
2023/01/22 10:32:38;;;;;;;;;;;1.00;99.90;;;;;;5017516;28;19920;-79
2023/01/22 10:35:12;;;;;;;;;;;1.00;99.90;;;;;;5018608;28;19952;-79
2023/01/22 10:37:45;;;;;;;;;;;1.10;99.90;;;;;;5020480;28;19976;-78
2023/01/22 10:40:19;;;;;;;;;;;1.30;99.90;;;;;;5021430;28;19913;-78
2023/01/22 10:42:45;;;;;;;;;;;1.50;99.90;;;;;;5003195;28;19937;-80
2023/01/22 10:45:14;;;;;;;;;;;1.90;99.90;;;;;;5002372;28;19918;-79
2023/01/22 10:47:40;;;;;;;;;;;2.10;99.90;;;;;;5016824;28;19913;-78
2023/01/22 10:50:11;;;;;;;;;;;2.40;99.90;;;;;;5016409;28;19909;-78
2023/01/22 10:52:55;;;;;;;;;;;2.50;99.30;;;;;;5002838;28;20021;-80
2023/01/22 10:55:26;;;;;;;;;;;2.40;98.10;;;;;;5017265;28;20008;-79
2023/01/22 10:57:54;;;;;;;;;;;2.20;95.80;;;;;;5035774;28;19910;-80
2023/01/22 11:00:26;;;;;;;;;;;1.80;96.10;;;;;;5017340;28;19914;-80
2023/01/22 11:02:52;;;;;;;;;;;1.50;97.20;;;;;;5023805;28;19925;-78
2023/01/22 11:05:25;;;;;;;;;;;1.30;96.90;;;;;;5018242;28;19921;-78
2023/01/22 11:07:52;;;;;;;;;;;1.30;98.00;;;;;;5035448;28;19914;-78
2023/01/22 11:10:47;;;;;;;;;;;1.40;96.70;;;;;;5033714;28;19918;-78
2023/01/22 11:13:18;;;;;;;;;;;1.30;96.70;;;;;;5013942;28;19924;-79
2023/01/22 11:15:50;;;;;;;;;;;1.40;96.60;;;;;;5023049;28;19944;-79
2023/01/22 11:18:21;;;;;;;;;;;1.40;96.60;;;;;;5020577;28;19925;-79
2023/01/22 11:20:49;;;;;;;;;;;1.50;95.90;;;;;;5021811;28;19996;-79
2023/01/22 11:23:33;;;;;;;;;;;1.50;96.50;;;;;;5020831;28;19914;-79
2023/01/22 11:26:04;;;;;;;;;;;1.50;97.20;;;;;;5022206;28;19921;-78
2023/01/22 11:28:40;;;;;;;;;;;1.30;97.70;;;;;;5015725;28;19969;-78
2023/01/22 11:31:18;;;;;;;;;;;1.40;96.40;;;;;;5002701;28;20012;-79
2023/01/22 11:34:06;;;;;;;;;;;1.50;96.90;;;;;;5002450;28;20016;-79
2023/01/22 11:36:35;;;;;;;;;;;1.60;97.00;;;;;;5018817;28;19972;-79
2023/01/22 11:39:11;;;;;;;;;;;1.70;97.00;;;;;;5020140;28;19921;-80
2023/01/22 11:41:39;;;;;;;;;;;1.80;96.70;;;;;;5023741;28;19924;-78
2023/01/22 11:44:17;;;;;;;;;;;1.70;96.20;;;;;;5021038;28;19967;-79
2023/01/22 11:46:42;;;;;;;;;;;1.60;96.20;;;;;;5026386;28;20386;-79
2023/01/22 11:49:18;;;;;;;;;;;1.50;96.20;;;;;;5024072;28;19917;-78
2023/01/22 11:51:43;;;;;;;;;;;1.40;96.90;;;;;;5017135;28;19914;-78
2023/01/22 11:54:09;;;;;;;;;;;1.40;97.20;;;;;;5012959;28;20280;-77
2023/01/22 11:56:53;;;;;;;;;;;1.40;97.00;;;;;;5016247;28;19914;-78
2023/01/22 11:59:21;;;;;;;;;;;1.30;97.00;;;;;;5014153;28;20571;-78
2023/01/22 12:01:50;;;;;;;;;;;1.30;96.00;;;;;;5026596;28;19920;-77
2023/01/22 12:04:27;;;;;;;;;;;1.30;96.30;;;;;;5020848;28;19992;-78
2023/01/22 12:07:07;;;;;;;;;;;1.30;97.30;;;;;;5009659;28;19916;-77
2023/01/22 12:09:41;;;;;;;;;;;1.50;96.90;;;;;;5022874;28;19936;-78
2023/01/22 12:12:13;;;;;;;;;;;1.30;95.70;;;;;;5032138;28;19920;-78
2023/01/22 12:15:02;;;;;;;;;;;1.10;95.90;;;;;;5030761;28;19929;-77
2023/01/22 12:17:33;;;;;;;;;;;1.20;96.70;;;;;;5012599;28;19937;-79
2023/01/22 12:20:11;;;;;;;;;;;1.40;96.80;;;;;;5031958;28;19917;-77
2023/01/22 12:22:42;;;;;;;;;;;1.60;96.90;;;;;;5009970;28;19925;-77
2023/01/22 12:25:26;;;;;;;;;;;1.90;96.80;;;;;;5026702;28;19920;-78
2023/01/22 12:28:03;;;;;;;;;;;2.10;95.90;;;;;;5007611;28;19925;-78
2023/01/22 12:30:35;;;;;;;;;;;2.20;95.60;;;;;;5024689;28;19933;-77
2023/01/22 12:33:04;;;;;;;;;;;2.50;95.40;;;;;;5025467;28;20369;-78
2023/01/22 12:35:30;;;;;;;;;;;2.50;94.90;;;;;;5021649;28;19913;-78
2023/01/22 12:37:58;;;;;;;;;;;2.50;94.30;;;;;;5023383;28;20371;-78
2023/01/22 12:40:39;;;;;;;;;;;2.20;93.60;;;;;;5024014;28;19901;-77
2023/01/22 12:43:05;;;;;;;;;;;2.00;94.00;;;;;;5010352;28;19973;-77
2023/01/22 12:45:39;;;;;;;;;;;1.90;95.00;;;;;;5030975;28;19915;-77
2023/01/22 12:48:10;;;;;;;;;;;1.80;95.30;;;;;;5011681;28;19920;-78
2023/01/22 12:50:46;;;;;;;;;;;1.60;95.20;;;;;;5028148;28;20282;-77
2023/01/22 12:53:21;;;;;;;;;;;1.50;95.40;;;;;;5027291;28;19929;-78
2023/01/22 12:55:56;;;;;;;;;;;1.40;95.10;;;;;;5028875;28;19984;-77
2023/01/22 12:58:22;;;;;;;;;;;1.20;95.30;;;;;;5026882;28;19918;-78
2023/01/22 13:01:20;;;;;;;;;;;1.10;95.90;;;;;;5028791;28;19940;-78
2023/01/22 13:03:55;;;;;;;;;;;0.90;96.30;;;;;;4985074;28;19912;-78
2023/01/22 13:06:32;;;;;;;;;;;0.60;96.30;;;;;;5032319;28;19940;-78
2023/01/22 13:08:58;;;;;;;;;;;0.50;96.70;;;;;;5033616;28;20040;-77
2023/01/22 13:11:26;;;;;;;;;;;0.50;97.00;;;;;;5032675;28;19917;-78
2023/01/22 13:13:58;;;;;;;;;;;0.50;97.30;;;;;;5012395;28;19942;-78
2023/01/22 13:16:30;;;;;;;;;;;0.60;97.60;;;;;;5022469;28;19913;-78
2023/01/22 13:18:55;;;;;;;;;;;0.60;97.70;;;;;;5031047;28;19981;-78
2023/01/22 13:21:26;;;;;;;;;;;0.60;97.70;;;;;;5031941;28;19917;-79
2023/01/22 13:23:56;;;;;;;;;;;0.60;97.80;;;;;;5017351;28;19928;-78
2023/01/22 13:26:23;;;;;;;;;;;0.60;97.60;;;;;;5045235;28;20004;-78
2023/01/22 13:28:50;;;;;;;;;;;0.50;97.50;;;;;;5029194;28;19913;-77
2023/01/22 13:31:16;;;;;;;;;;;0.40;97.30;;;;;;5018445;28;19967;-78
2023/01/22 13:33:51;;;;;;;;;;;0.30;98.00;;;;;;5033836;28;19909;-77
2023/01/22 13:36:17;;;;;;;;;;;0.30;98.10;;;;;;5026182;28;19925;-78
2023/01/22 13:38:49;;;;;;;;;;;0.20;98.10;;;;;;5017790;28;19937;-78
2023/01/22 13:41:20;;;;;;;;;;;0.30;98.60;;;;;;5029504;28;20263;-77
2023/01/22 13:43:46;;;;;;;;;;;0.50;99.30;;;;;;5032000;28;19918;-79
2023/01/22 13:46:12;;;;;;;;;;;0.70;98.80;;;;;;5032625;28;19928;-77
2023/01/22 13:48:37;;;;;;;;;;;0.70;98.20;;;;;;5029917;28;19949;-78
2023/01/22 13:51:13;;;;;;;;;;;0.60;97.30;;;;;;5021447;28;19909;-77
2023/01/22 13:53:43;;;;;;;;;;;0.50;97.70;;;;;;5004400;28;20458;-77
2023/01/22 13:56:16;;;;;;;;;;;0.60;98.20;;;;;;5021379;28;19996;-78
2023/01/22 13:58:42;;;;;;;;;;;0.60;98.30;;;;;;5021812;28;19921;-77
2023/01/22 14:01:28;;;;;;;;;;;0.60;98.20;;;;;;5021120;28;20007;-77
2023/01/22 14:04:01;;;;;;;;;;;0.40;97.00;;;;;;5018558;28;20394;-77
2023/01/22 14:06:27;;;;;;;;;;;0.30;96.90;;;;;;5016718;28;19925;-78
2023/01/22 14:08:53;;;;;;;;;;;0.20;97.20;;;;;;5017605;28;19909;-77
2023/01/22 14:11:19;;;;;;;;;;;0.10;97.60;;;;;;5016491;28;19920;-77
2023/01/22 14:13:46;;;;;;;;;;;0.20;98.30;;;;;;5016217;28;19938;-77
2023/01/22 14:16:12;;;;;;;;;;;0.40;98.60;;;;;;5016479;28;19918;-77
2023/01/22 14:18:38;;;;;;;;;;;0.50;98.70;;;;;;5001114;28;19924;-78
2023/01/22 14:21:04;;;;;;;;;;;0.70;98.70;;;;;;5016585;28;19914;-77
2023/01/22 14:23:30;;;;;;;;;;;0.80;98.50;;;;;;5017118;28;20362;-77
2023/01/22 14:25:55;;;;;;;;;;;0.90;98.20;;;;;;5018501;28;19913;-77
2023/01/22 14:28:22;;;;;;;;;;;1.00;97.90;;;;;;5020772;28;19940;-78
2023/01/22 14:30:48;;;;;;;;;;;1.00;97.60;;;;;;5022572;28;19918;-77
2023/01/22 14:33:16;;;;;;;;;;;0.90;97.30;;;;;;5020258;28;20260;-77